sensor_id;sensor_type;location;lat;lon;timestamp;P1;durP1;ratioP1;P2;durP2;ratioP2
72904;SDS011;61048;52.162;4.516;2023-08-17T00:00:56;2.42;;;0.60;;
72904;SDS011;61048;52.162;4.516;2023-08-17T00:03:25;2.30;;;0.40;;
72904;SDS011;61048;52.162;4.516;2023-08-17T00:05:52;1.38;;;0.35;;
72904;SDS011;61048;52.162;4.516;2023-08-17T00:08:19;2.65;;;0.60;;
72904;SDS011;61048;52.162;4.516;2023-08-17T00:10:46;1.90;;;0.40;;
72904;SDS011;61048;52.162;4.516;2023-08-17T00:13:13;2.55;;;0.57;;
72904;SDS011;61048;52.162;4.516;2023-08-17T00:15:40;1.48;;;0.25;;
72904;SDS011;61048;52.162;4.516;2023-08-17T00:18:09;2.35;;;0.77;;
72904;SDS011;61048;52.162;4.516;2023-08-17T00:20:38;1.83;;;0.50;;
72904;SDS011;61048;52.162;4.516;2023-08-17T00:23:05;2.88;;;0.45;;
72904;SDS011;61048;52.162;4.516;2023-08-17T00:25:32;1.83;;;0.20;;
72904;SDS011;61048;52.162;4.516;2023-08-17T00:27:59;2.58;;;0.50;;
72904;SDS011;61048;52.162;4.516;2023-08-17T00:30:26;4.30;;;0.60;;
72904;SDS011;61048;52.162;4.516;2023-08-17T00:32:53;2.40;;;0.40;;
72904;SDS011;61048;52.162;4.516;2023-08-17T00:35:19;1.92;;;0.30;;
72904;SDS011;61048;52.162;4.516;2023-08-17T00:37:48;1.58;;;0.40;;
72904;SDS011;61048;52.162;4.516;2023-08-17T00:40:15;1.52;;;0.43;;
72904;SDS011;61048;52.162;4.516;2023-08-17T00:42:42;2.88;;;0.68;;
72904;SDS011;61048;52.162;4.516;2023-08-17T00:45:09;2.53;;;0.50;;
72904;SDS011;61048;52.162;4.516;2023-08-17T00:47:36;1.50;;;0.45;;
72904;SDS011;61048;52.162;4.516;2023-08-17T00:50:03;1.92;;;0.40;;
72904;SDS011;61048;52.162;4.516;2023-08-17T00:52:32;2.92;;;0.30;;
72904;SDS011;61048;52.162;4.516;2023-08-17T00:55:01;1.98;;;0.63;;
72904;SDS011;61048;52.162;4.516;2023-08-17T00:57:30;2.03;;;0.40;;
72904;SDS011;61048;52.162;4.516;2023-08-17T00:59:58;2.35;;;0.50;;
72904;SDS011;61048;52.162;4.516;2023-08-17T01:02:26;1.65;;;0.30;;
72904;SDS011;61048;52.162;4.516;2023-08-17T01:04:53;2.10;;;0.30;;
72904;SDS011;61048;52.162;4.516;2023-08-17T01:07:21;1.65;;;0.60;;
72904;SDS011;61048;52.162;4.516;2023-08-17T01:09:48;2.25;;;0.30;;
72904;SDS011;61048;52.162;4.516;2023-08-17T01:12:19;2.42;;;0.40;;
72904;SDS011;61048;52.162;4.516;2023-08-17T01:15:00;1.95;;;0.38;;
72904;SDS011;61048;52.162;4.516;2023-08-17T01:17:37;1.73;;;0.40;;
72904;SDS011;61048;52.162;4.516;2023-08-17T01:20:09;1.90;;;0.40;;
72904;SDS011;61048;52.162;4.516;2023-08-17T01:22:39;2.42;;;0.40;;
72904;SDS011;61048;52.162;4.516;2023-08-17T01:25:09;2.10;;;0.30;;
72904;SDS011;61048;52.162;4.516;2023-08-17T01:27:38;1.40;;;0.40;;
72904;SDS011;61048;52.162;4.516;2023-08-17T01:30:06;2.80;;;0.60;;
72904;SDS011;61048;52.162;4.516;2023-08-17T01:32:36;2.42;;;0.43;;
72904;SDS011;61048;52.162;4.516;2023-08-17T01:35:09;2.45;;;0.38;;
72904;SDS011;61048;52.162;4.516;2023-08-17T01:37:47;2.88;;;0.45;;
72904;SDS011;61048;52.162;4.516;2023-08-17T01:40:18;4.00;;;0.30;;
72904;SDS011;61048;52.162;4.516;2023-08-17T01:42:46;2.65;;;0.57;;
72904;SDS011;61048;52.162;4.516;2023-08-17T01:45:14;2.10;;;0.45;;
72904;SDS011;61048;52.162;4.516;2023-08-17T01:47:42;2.28;;;0.40;;
72904;SDS011;61048;52.162;4.516;2023-08-17T01:50:09;2.80;;;0.50;;
72904;SDS011;61048;52.162;4.516;2023-08-17T01:52:36;1.83;;;0.43;;
72904;SDS011;61048;52.162;4.516;2023-08-17T01:55:03;1.92;;;0.40;;
72904;SDS011;61048;52.162;4.516;2023-08-17T01:57:32;1.77;;;0.40;;
72904;SDS011;61048;52.162;4.516;2023-08-17T02:00:00;2.70;;;0.70;;
72904;SDS011;61048;52.162;4.516;2023-08-17T02:02:28;1.50;;;0.35;;
72904;SDS011;61048;52.162;4.516;2023-08-17T02:04:55;4.57;;;0.52;;
72904;SDS011;61048;52.162;4.516;2023-08-17T02:07:22;2.75;;;0.50;;
72904;SDS011;61048;52.162;4.516;2023-08-17T02:09:49;2.60;;;0.40;;
72904;SDS011;61048;52.162;4.516;2023-08-17T02:12:16;1.67;;;0.35;;
72904;SDS011;61048;52.162;4.516;2023-08-17T02:14:44;2.40;;;0.60;;
72904;SDS011;61048;52.162;4.516;2023-08-17T02:17:11;2.00;;;0.40;;
72904;SDS011;61048;52.162;4.516;2023-08-17T02:19:38;2.05;;;0.30;;
72904;SDS011;61048;52.162;4.516;2023-08-17T02:22:05;3.30;;;0.43;;
72904;SDS011;61048;52.162;4.516;2023-08-17T02:24:32;2.83;;;0.40;;
72904;SDS011;61048;52.162;4.516;2023-08-17T02:26:59;3.00;;;0.45;;
72904;SDS011;61048;52.162;4.516;2023-08-17T02:29:26;2.92;;;0.50;;
72904;SDS011;61048;52.162;4.516;2023-08-17T02:31:53;2.80;;;0.40;;
72904;SDS011;61048;52.162;4.516;2023-08-17T02:34:20;3.25;;;0.40;;
72904;SDS011;61048;52.162;4.516;2023-08-17T02:36:47;2.17;;;0.50;;
72904;SDS011;61048;52.162;4.516;2023-08-17T02:39:14;3.10;;;0.47;;
72904;SDS011;61048;52.162;4.516;2023-08-17T02:41:41;1.45;;;0.50;;
72904;SDS011;61048;52.162;4.516;2023-08-17T02:44:09;1.52;;;0.40;;
72904;SDS011;61048;52.162;4.516;2023-08-17T02:46:37;3.08;;;0.60;;
72904;SDS011;61048;52.162;4.516;2023-08-17T02:49:05;1.70;;;0.43;;
72904;SDS011;61048;52.162;4.516;2023-08-17T02:51:32;1.80;;;0.60;;
72904;SDS011;61048;52.162;4.516;2023-08-17T02:53:59;1.77;;;0.60;;
72904;SDS011;61048;52.162;4.516;2023-08-17T02:56:25;2.50;;;0.50;;
72904;SDS011;61048;52.162;4.516;2023-08-17T02:58:52;2.45;;;0.50;;
72904;SDS011;61048;52.162;4.516;2023-08-17T03:01:19;3.13;;;0.40;;
72904;SDS011;61048;52.162;4.516;2023-08-17T03:03:46;2.78;;;0.40;;
72904;SDS011;61048;52.162;4.516;2023-08-17T03:06:14;2.45;;;0.52;;
72904;SDS011;61048;52.162;4.516;2023-08-17T03:08:42;3.25;;;0.50;;
72904;SDS011;61048;52.162;4.516;2023-08-17T03:11:08;3.47;;;0.60;;
72904;SDS011;61048;52.162;4.516;2023-08-17T03:13:35;1.88;;;0.40;;
72904;SDS011;61048;52.162;4.516;2023-08-17T03:16:02;2.28;;;0.40;;
72904;SDS011;61048;52.162;4.516;2023-08-17T03:18:30;3.35;;;0.45;;
72904;SDS011;61048;52.162;4.516;2023-08-17T03:20:56;2.50;;;0.40;;
72904;SDS011;61048;52.162;4.516;2023-08-17T03:23:25;2.15;;;0.40;;
72904;SDS011;61048;52.162;4.516;2023-08-17T03:25:52;1.73;;;0.28;;
72904;SDS011;61048;52.162;4.516;2023-08-17T03:28:19;2.58;;;0.40;;
72904;SDS011;61048;52.162;4.516;2023-08-17T03:30:46;1.65;;;0.30;;
72904;SDS011;61048;52.162;4.516;2023-08-17T03:33:13;1.90;;;0.30;;
72904;SDS011;61048;52.162;4.516;2023-08-17T03:35:39;1.35;;;0.32;;
72904;SDS011;61048;52.162;4.516;2023-08-17T03:38:06;2.33;;;0.40;;
72904;SDS011;61048;52.162;4.516;2023-08-17T03:40:35;2.33;;;0.32;;
72904;SDS011;61048;52.162;4.516;2023-08-17T03:43:02;1.58;;;0.32;;
72904;SDS011;61048;52.162;4.516;2023-08-17T03:45:29;1.65;;;0.50;;
72904;SDS011;61048;52.162;4.516;2023-08-17T03:47:56;3.00;;;0.38;;
72904;SDS011;61048;52.162;4.516;2023-08-17T03:50:25;2.17;;;0.40;;
72904;SDS011;61048;52.162;4.516;2023-08-17T03:52:52;1.95;;;0.50;;
72904;SDS011;61048;52.162;4.516;2023-08-17T03:55:19;1.73;;;0.40;;
72904;SDS011;61048;52.162;4.516;2023-08-17T03:57:47;2.28;;;0.30;;
72904;SDS011;61048;52.162;4.516;2023-08-17T04:00:14;1.80;;;0.40;;
72904;SDS011;61048;52.162;4.516;2023-08-17T04:02:42;2.42;;;0.45;;
72904;SDS011;61048;52.162;4.516;2023-08-17T04:05:10;3.20;;;0.40;;
72904;SDS011;61048;52.162;4.516;2023-08-17T04:07:37;4.95;;;0.40;;
72904;SDS011;61048;52.162;4.516;2023-08-17T04:10:05;2.22;;;0.45;;
72904;SDS011;61048;52.162;4.516;2023-08-17T04:12:32;2.55;;;0.30;;
72904;SDS011;61048;52.162;4.516;2023-08-17T04:15:01;1.85;;;0.32;;
72904;SDS011;61048;52.162;4.516;2023-08-17T04:17:29;2.65;;;0.40;;
72904;SDS011;61048;52.162;4.516;2023-08-17T04:19:56;1.42;;;0.35;;
72904;SDS011;61048;52.162;4.516;2023-08-17T04:22:23;0.90;;;0.30;;
72904;SDS011;61048;52.162;4.516;2023-08-17T04:24:50;2.63;;;0.35;;
72904;SDS011;61048;52.162;4.516;2023-08-17T04:27:17;4.18;;;0.50;;
72904;SDS011;61048;52.162;4.516;2023-08-17T04:29:44;1.55;;;0.40;;
72904;SDS011;61048;52.162;4.516;2023-08-17T04:32:14;4.10;;;0.45;;
72904;SDS011;61048;52.162;4.516;2023-08-17T04:34:42;2.30;;;0.50;;
72904;SDS011;61048;52.162;4.516;2023-08-17T04:37:09;2.67;;;0.50;;
72904;SDS011;61048;52.162;4.516;2023-08-17T04:39:36;2.50;;;0.57;;
72904;SDS011;61048;52.162;4.516;2023-08-17T04:42:03;1.95;;;0.20;;
72904;SDS011;61048;52.162;4.516;2023-08-17T04:44:30;2.10;;;0.43;;
72904;SDS011;61048;52.162;4.516;2023-08-17T04:46:57;1.65;;;0.30;;
72904;SDS011;61048;52.162;4.516;2023-08-17T04:49:25;1.05;;;0.40;;
72904;SDS011;61048;52.162;4.516;2023-08-17T04:51:52;1.80;;;0.40;;
72904;SDS011;61048;52.162;4.516;2023-08-17T04:54:19;2.42;;;0.47;;
72904;SDS011;61048;52.162;4.516;2023-08-17T04:56:46;2.10;;;0.40;;
72904;SDS011;61048;52.162;4.516;2023-08-17T04:59:13;2.67;;;0.35;;
72904;SDS011;61048;52.162;4.516;2023-08-17T05:01:40;3.05;;;0.80;;
72904;SDS011;61048;52.162;4.516;2023-08-17T05:04:07;35.55;;;8.70;;
72904;SDS011;61048;52.162;4.516;2023-08-17T05:06:35;49.67;;;11.70;;
72904;SDS011;61048;52.162;4.516;2023-08-17T05:09:03;37.88;;;9.20;;
72904;SDS011;61048;52.162;4.516;2023-08-17T05:11:32;41.05;;;10.15;;
72904;SDS011;61048;52.162;4.516;2023-08-17T05:13:58;39.50;;;9.30;;
72904;SDS011;61048;52.162;4.516;2023-08-17T05:16:25;31.02;;;8.00;;
72904;SDS011;61048;52.162;4.516;2023-08-17T05:18:52;31.25;;;7.03;;
72904;SDS011;61048;52.162;4.516;2023-08-17T05:21:19;30.48;;;7.00;;
72904;SDS011;61048;52.162;4.516;2023-08-17T05:23:47;27.42;;;6.80;;
72904;SDS011;61048;52.162;4.516;2023-08-17T05:26:14;28.17;;;6.05;;
72904;SDS011;61048;52.162;4.516;2023-08-17T05:28:41;23.92;;;5.75;;
72904;SDS011;61048;52.162;4.516;2023-08-17T05:31:08;18.35;;;5.97;;
72904;SDS011;61048;52.162;4.516;2023-08-17T05:33:35;17.20;;;4.85;;
72904;SDS011;61048;52.162;4.516;2023-08-17T05:36:03;21.20;;;5.30;;
72904;SDS011;61048;52.162;4.516;2023-08-17T05:38:30;16.48;;;4.43;;
72904;SDS011;61048;52.162;4.516;2023-08-17T05:40:58;15.95;;;4.00;;
72904;SDS011;61048;52.162;4.516;2023-08-17T05:43:27;18.60;;;4.30;;
72904;SDS011;61048;52.162;4.516;2023-08-17T05:45:54;18.65;;;4.40;;
72904;SDS011;61048;52.162;4.516;2023-08-17T05:48:23;15.40;;;3.25;;
72904;SDS011;61048;52.162;4.516;2023-08-17T05:50:50;14.93;;;3.88;;
72904;SDS011;61048;52.162;4.516;2023-08-17T05:53:17;14.15;;;3.53;;
72904;SDS011;61048;52.162;4.516;2023-08-17T05:55:44;17.23;;;4.03;;
72904;SDS011;61048;52.162;4.516;2023-08-17T05:58:12;11.57;;;3.15;;
72904;SDS011;61048;52.162;4.516;2023-08-17T06:00:39;12.43;;;3.17;;
72904;SDS011;61048;52.162;4.516;2023-08-17T06:03:06;12.73;;;3.22;;
72904;SDS011;61048;52.162;4.516;2023-08-17T06:05:34;10.90;;;2.65;;
72904;SDS011;61048;52.162;4.516;2023-08-17T06:08:01;11.95;;;2.97;;
72904;SDS011;61048;52.162;4.516;2023-08-17T06:10:28;13.27;;;2.75;;
72904;SDS011;61048;52.162;4.516;2023-08-17T06:12:55;8.05;;;2.25;;
72904;SDS011;61048;52.162;4.516;2023-08-17T06:15:24;10.13;;;2.67;;
72904;SDS011;61048;52.162;4.516;2023-08-17T06:17:51;10.82;;;1.77;;
72904;SDS011;61048;52.162;4.516;2023-08-17T06:20:18;9.27;;;1.60;;
72904;SDS011;61048;52.162;4.516;2023-08-17T06:22:46;9.85;;;2.35;;
72904;SDS011;61048;52.162;4.516;2023-08-17T06:25:14;7.93;;;1.90;;
72904;SDS011;61048;52.162;4.516;2023-08-17T06:27:41;7.47;;;1.48;;
72904;SDS011;61048;52.162;4.516;2023-08-17T06:30:09;9.70;;;1.95;;
72904;SDS011;61048;52.162;4.516;2023-08-17T06:32:38;7.43;;;1.70;;
72904;SDS011;61048;52.162;4.516;2023-08-17T06:35:06;12.73;;;2.00;;
72904;SDS011;61048;52.162;4.516;2023-08-17T06:37:34;4.88;;;1.33;;
72904;SDS011;61048;52.162;4.516;2023-08-17T06:40:01;6.00;;;1.50;;
72904;SDS011;61048;52.162;4.516;2023-08-17T06:42:28;11.95;;;1.38;;
72904;SDS011;61048;52.162;4.516;2023-08-17T06:44:55;4.70;;;1.05;;
72904;SDS011;61048;52.162;4.516;2023-08-17T06:47:22;4.38;;;1.10;;
72904;SDS011;61048;52.162;4.516;2023-08-17T06:49:50;4.75;;;1.00;;
72904;SDS011;61048;52.162;4.516;2023-08-17T06:52:17;5.88;;;1.02;;
72904;SDS011;61048;52.162;4.516;2023-08-17T06:54:44;5.70;;;0.70;;
72904;SDS011;61048;52.162;4.516;2023-08-17T06:57:11;4.88;;;0.82;;
72904;SDS011;61048;52.162;4.516;2023-08-17T06:59:38;5.25;;;0.93;;
72904;SDS011;61048;52.162;4.516;2023-08-17T07:02:05;6.20;;;1.20;;
72904;SDS011;61048;52.162;4.516;2023-08-17T07:04:32;3.85;;;0.70;;
72904;SDS011;61048;52.162;4.516;2023-08-17T07:07:01;3.28;;;0.90;;
72904;SDS011;61048;52.162;4.516;2023-08-17T07:09:28;3.40;;;0.80;;
72904;SDS011;61048;52.162;4.516;2023-08-17T07:11:55;5.95;;;1.00;;
72904;SDS011;61048;52.162;4.516;2023-08-17T07:14:21;4.47;;;0.70;;
72904;SDS011;61048;52.162;4.516;2023-08-17T07:16:49;4.03;;;0.60;;
72904;SDS011;61048;52.162;4.516;2023-08-17T07:19:16;5.00;;;0.93;;
72904;SDS011;61048;52.162;4.516;2023-08-17T07:21:43;3.85;;;0.82;;
72904;SDS011;61048;52.162;4.516;2023-08-17T07:24:15;2.42;;;0.60;;
72904;SDS011;61048;52.162;4.516;2023-08-17T07:26:43;3.47;;;0.68;;
72904;SDS011;61048;52.162;4.516;2023-08-17T07:29:09;1.45;;;0.35;;
72904;SDS011;61048;52.162;4.516;2023-08-17T07:31:37;3.42;;;0.85;;
72904;SDS011;61048;52.162;4.516;2023-08-17T07:34:04;2.72;;;0.70;;
72904;SDS011;61048;52.162;4.516;2023-08-17T07:36:32;2.05;;;0.40;;
72904;SDS011;61048;52.162;4.516;2023-08-17T07:38:59;2.72;;;0.75;;
72904;SDS011;61048;52.162;4.516;2023-08-17T07:41:27;2.33;;;0.47;;
72904;SDS011;61048;52.162;4.516;2023-08-17T07:43:54;3.92;;;0.82;;
72904;SDS011;61048;52.162;4.516;2023-08-17T07:46:21;3.35;;;0.40;;
72904;SDS011;61048;52.162;4.516;2023-08-17T07:48:48;3.22;;;0.50;;
72904;SDS011;61048;52.162;4.516;2023-08-17T07:51:14;2.67;;;0.52;;
72904;SDS011;61048;52.162;4.516;2023-08-17T07:53:41;1.42;;;0.50;;
72904;SDS011;61048;52.162;4.516;2023-08-17T07:56:08;3.25;;;0.57;;
72904;SDS011;61048;52.162;4.516;2023-08-17T07:58:37;3.72;;;0.55;;
72904;SDS011;61048;52.162;4.516;2023-08-17T08:01:04;2.95;;;0.70;;
72904;SDS011;61048;52.162;4.516;2023-08-17T08:03:31;3.47;;;0.40;;
72904;SDS011;61048;52.162;4.516;2023-08-17T08:05:58;2.75;;;0.40;;
72904;SDS011;61048;52.162;4.516;2023-08-17T08:08:25;1.88;;;0.45;;
72904;SDS011;61048;52.162;4.516;2023-08-17T08:10:52;1.73;;;0.22;;
72904;SDS011;61048;52.162;4.516;2023-08-17T08:13:19;2.15;;;0.50;;
72904;SDS011;61048;52.162;4.516;2023-08-17T08:15:48;3.53;;;0.40;;
72904;SDS011;61048;52.162;4.516;2023-08-17T08:18:15;1.55;;;0.40;;
72904;SDS011;61048;52.162;4.516;2023-08-17T08:20:42;3.47;;;0.93;;
72904;SDS011;61048;52.162;4.516;2023-08-17T08:23:09;3.08;;;0.52;;
72904;SDS011;61048;52.162;4.516;2023-08-17T08:25:36;5.07;;;0.50;;
72904;SDS011;61048;52.162;4.516;2023-08-17T08:28:03;3.17;;;0.50;;
72904;SDS011;61048;52.162;4.516;2023-08-17T08:30:30;2.22;;;0.47;;
72904;SDS011;61048;52.162;4.516;2023-08-17T08:32:59;2.03;;;0.47;;
72904;SDS011;61048;52.162;4.516;2023-08-17T08:35:26;2.75;;;0.65;;
72904;SDS011;61048;52.162;4.516;2023-08-17T08:37:54;1.75;;;0.38;;
72904;SDS011;61048;52.162;4.516;2023-08-17T08:40:26;3.20;;;0.40;;
72904;SDS011;61048;52.162;4.516;2023-08-17T08:42:55;3.72;;;0.60;;
72904;SDS011;61048;52.162;4.516;2023-08-17T08:45:22;2.47;;;0.40;;
72904;SDS011;61048;52.162;4.516;2023-08-17T08:47:50;1.40;;;0.40;;
72904;SDS011;61048;52.162;4.516;2023-08-17T08:50:20;4.28;;;0.77;;
72904;SDS011;61048;52.162;4.516;2023-08-17T08:52:49;5.78;;;1.00;;
72904;SDS011;61048;52.162;4.516;2023-08-17T08:55:20;1.60;;;0.52;;
72904;SDS011;61048;52.162;4.516;2023-08-17T08:57:49;3.75;;;0.40;;
72904;SDS011;61048;52.162;4.516;2023-08-17T09:00:18;4.88;;;1.05;;
72904;SDS011;61048;52.162;4.516;2023-08-17T09:02:46;3.67;;;0.60;;
72904;SDS011;61048;52.162;4.516;2023-08-17T09:05:14;3.25;;;0.60;;
72904;SDS011;61048;52.162;4.516;2023-08-17T09:07:43;3.50;;;0.43;;
72904;SDS011;61048;52.162;4.516;2023-08-17T09:10:11;3.35;;;0.55;;
72904;SDS011;61048;52.162;4.516;2023-08-17T09:12:39;3.33;;;0.73;;
72904;SDS011;61048;52.162;4.516;2023-08-17T09:15:06;4.28;;;0.70;;
72904;SDS011;61048;52.162;4.516;2023-08-17T09:17:34;3.67;;;0.73;;
72904;SDS011;61048;52.162;4.516;2023-08-17T09:20:01;2.15;;;0.73;;
72904;SDS011;61048;52.162;4.516;2023-08-17T09:22:36;2.88;;;0.60;;
72904;SDS011;61048;52.162;4.516;2023-08-17T09:25:06;3.47;;;0.88;;
72904;SDS011;61048;52.162;4.516;2023-08-17T09:27:34;4.95;;;0.73;;
72904;SDS011;61048;52.162;4.516;2023-08-17T09:30:02;3.95;;;0.57;;
72904;SDS011;61048;52.162;4.516;2023-08-17T09:32:30;4.25;;;0.80;;
72904;SDS011;61048;52.162;4.516;2023-08-17T09:35:00;5.55;;;0.77;;
72904;SDS011;61048;52.162;4.516;2023-08-17T09:37:27;2.35;;;0.52;;
72904;SDS011;61048;52.162;4.516;2023-08-17T09:39:54;2.20;;;0.55;;
72904;SDS011;61048;52.162;4.516;2023-08-17T09:42:23;5.25;;;0.90;;
72904;SDS011;61048;52.162;4.516;2023-08-17T09:44:51;3.85;;;0.80;;
72904;SDS011;61048;52.162;4.516;2023-08-17T09:47:18;2.85;;;0.57;;
72904;SDS011;61048;52.162;4.516;2023-08-17T09:49:47;4.10;;;0.73;;
72904;SDS011;61048;52.162;4.516;2023-08-17T09:52:15;3.00;;;0.88;;
72904;SDS011;61048;52.162;4.516;2023-08-17T09:54:42;5.18;;;0.40;;
72904;SDS011;61048;52.162;4.516;2023-08-17T09:57:11;5.25;;;0.73;;
72904;SDS011;61048;52.162;4.516;2023-08-17T09:59:40;5.57;;;0.60;;
72904;SDS011;61048;52.162;4.516;2023-08-17T10:02:10;3.08;;;0.63;;
72904;SDS011;61048;52.162;4.516;2023-08-17T10:04:44;2.72;;;0.77;;
72904;SDS011;61048;52.162;4.516;2023-08-17T10:07:15;2.17;;;0.47;;
72904;SDS011;61048;52.162;4.516;2023-08-17T10:09:45;6.43;;;0.95;;
72904;SDS011;61048;52.162;4.516;2023-08-17T10:12:19;3.88;;;0.60;;
72904;SDS011;61048;52.162;4.516;2023-08-17T10:14:52;4.55;;;0.80;;
72904;SDS011;61048;52.162;4.516;2023-08-17T10:17:25;3.42;;;0.50;;
72904;SDS011;61048;52.162;4.516;2023-08-17T10:19:54;4.57;;;0.60;;
72904;SDS011;61048;52.162;4.516;2023-08-17T10:22:24;5.43;;;0.63;;
72904;SDS011;61048;52.162;4.516;2023-08-17T10:24:55;4.65;;;0.85;;
72904;SDS011;61048;52.162;4.516;2023-08-17T10:27:24;4.38;;;0.70;;
72904;SDS011;61048;52.162;4.516;2023-08-17T10:29:53;2.45;;;0.60;;
72904;SDS011;61048;52.162;4.516;2023-08-17T10:32:22;3.13;;;0.60;;
72904;SDS011;61048;52.162;4.516;2023-08-17T10:34:50;3.55;;;0.80;;
72904;SDS011;61048;52.162;4.516;2023-08-17T10:37:18;1.77;;;0.55;;
72904;SDS011;61048;52.162;4.516;2023-08-17T10:39:47;2.28;;;0.60;;
72904;SDS011;61048;52.162;4.516;2023-08-17T10:42:15;5.53;;;0.63;;
72904;SDS011;61048;52.162;4.516;2023-08-17T10:44:57;3.33;;;0.50;;
72904;SDS011;61048;52.162;4.516;2023-08-17T10:47:26;2.85;;;0.73;;
72904;SDS011;61048;52.162;4.516;2023-08-17T10:49:55;4.78;;;1.00;;
72904;SDS011;61048;52.162;4.516;2023-08-17T10:52:24;4.30;;;0.57;;
72904;SDS011;61048;52.162;4.516;2023-08-17T10:54:53;2.60;;;0.73;;
72904;SDS011;61048;52.162;4.516;2023-08-17T10:57:24;2.97;;;0.73;;
72904;SDS011;61048;52.162;4.516;2023-08-17T11:00:06;2.42;;;0.85;;
72904;SDS011;61048;52.162;4.516;2023-08-17T11:02:42;4.68;;;0.88;;
72904;SDS011;61048;52.162;4.516;2023-08-17T11:05:10;4.40;;;0.85;;
72904;SDS011;61048;52.162;4.516;2023-08-17T11:07:38;2.83;;;0.70;;
72904;SDS011;61048;52.162;4.516;2023-08-17T11:12:57;5.07;;;1.20;;
72904;SDS011;61048;52.162;4.516;2023-08-17T11:15:30;6.97;;;0.65;;
72904;SDS011;61048;52.162;4.516;2023-08-17T11:18:04;4.13;;;0.95;;
72904;SDS011;61048;52.162;4.516;2023-08-17T11:20:32;5.95;;;1.13;;
72904;SDS011;61048;52.162;4.516;2023-08-17T11:22:59;4.93;;;0.80;;
72904;SDS011;61048;52.162;4.516;2023-08-17T11:25:26;5.65;;;1.10;;
72904;SDS011;61048;52.162;4.516;2023-08-17T11:27:54;5.00;;;1.05;;
72904;SDS011;61048;52.162;4.516;2023-08-17T11:30:21;4.28;;;1.00;;
72904;SDS011;61048;52.162;4.516;2023-08-17T11:32:50;2.88;;;1.00;;
72904;SDS011;61048;52.162;4.516;2023-08-17T11:35:19;3.67;;;1.38;;
72904;SDS011;61048;52.162;4.516;2023-08-17T11:37:46;5.07;;;0.90;;
72904;SDS011;61048;52.162;4.516;2023-08-17T11:40:14;3.03;;;0.93;;
72904;SDS011;61048;52.162;4.516;2023-08-17T11:42:42;3.03;;;0.80;;
72904;SDS011;61048;52.162;4.516;2023-08-17T11:45:09;4.50;;;1.02;;
72904;SDS011;61048;52.162;4.516;2023-08-17T11:47:37;3.95;;;1.10;;
72904;SDS011;61048;52.162;4.516;2023-08-17T11:50:08;4.15;;;0.90;;
72904;SDS011;61048;52.162;4.516;2023-08-17T11:52:36;5.15;;;1.55;;
72904;SDS011;61048;52.162;4.516;2023-08-17T11:55:03;3.55;;;1.02;;
72904;SDS011;61048;52.162;4.516;2023-08-17T11:57:31;5.97;;;1.08;;
72904;SDS011;61048;52.162;4.516;2023-08-17T11:59:59;2.67;;;0.82;;
72904;SDS011;61048;52.162;4.516;2023-08-17T12:02:28;3.25;;;0.70;;
72904;SDS011;61048;52.162;4.516;2023-08-17T12:04:56;3.45;;;0.80;;
72904;SDS011;61048;52.162;4.516;2023-08-17T12:07:24;3.38;;;0.90;;
72904;SDS011;61048;52.162;4.516;2023-08-17T12:09:52;2.70;;;0.85;;
72904;SDS011;61048;52.162;4.516;2023-08-17T12:12:21;4.22;;;0.90;;
72904;SDS011;61048;52.162;4.516;2023-08-17T12:14:48;3.10;;;0.90;;
72904;SDS011;61048;52.162;4.516;2023-08-17T12:17:15;4.03;;;0.85;;
72904;SDS011;61048;52.162;4.516;2023-08-17T12:19:43;3.97;;;1.05;;
72904;SDS011;61048;52.162;4.516;2023-08-17T12:22:10;2.85;;;0.75;;
72904;SDS011;61048;52.162;4.516;2023-08-17T12:24:40;4.28;;;0.90;;
72904;SDS011;61048;52.162;4.516;2023-08-17T12:27:09;3.50;;;1.00;;
72904;SDS011;61048;52.162;4.516;2023-08-17T12:29:45;4.40;;;0.98;;
72904;SDS011;61048;52.162;4.516;2023-08-17T12:32:13;4.40;;;1.08;;
72904;SDS011;61048;52.162;4.516;2023-08-17T12:34:41;4.03;;;0.90;;
72904;SDS011;61048;52.162;4.516;2023-08-17T12:37:08;3.42;;;1.25;;
72904;SDS011;61048;52.162;4.516;2023-08-17T12:39:35;4.75;;;1.40;;
72904;SDS011;61048;52.162;4.516;2023-08-17T12:42:04;4.47;;;1.05;;
72904;SDS011;61048;52.162;4.516;2023-08-17T12:44:32;3.45;;;0.80;;
72904;SDS011;61048;52.162;4.516;2023-08-17T12:46:59;4.50;;;0.80;;
72904;SDS011;61048;52.162;4.516;2023-08-17T12:49:26;4.80;;;0.90;;
72904;SDS011;61048;52.162;4.516;2023-08-17T12:51:53;5.82;;;1.08;;
72904;SDS011;61048;52.162;4.516;2023-08-17T12:54:20;2.88;;;0.73;;
72904;SDS011;61048;52.162;4.516;2023-08-17T12:56:47;6.30;;;1.05;;
72904;SDS011;61048;52.162;4.516;2023-08-17T12:59:15;5.30;;;0.93;;
72904;SDS011;61048;52.162;4.516;2023-08-17T13:01:42;3.38;;;1.00;;
72904;SDS011;61048;52.162;4.516;2023-08-17T13:04:09;4.20;;;0.95;;
72904;SDS011;61048;52.162;4.516;2023-08-17T13:06:36;2.78;;;1.13;;
72904;SDS011;61048;52.162;4.516;2023-08-17T13:09:02;2.75;;;1.00;;
72904;SDS011;61048;52.162;4.516;2023-08-17T13:11:29;2.92;;;0.95;;
72904;SDS011;61048;52.162;4.516;2023-08-17T13:13:57;3.28;;;0.90;;
72904;SDS011;61048;52.162;4.516;2023-08-17T13:16:25;2.83;;;0.88;;
72904;SDS011;61048;52.162;4.516;2023-08-17T13:18:52;7.68;;;1.27;;
72904;SDS011;61048;52.162;4.516;2023-08-17T13:21:19;2.65;;;0.85;;
72904;SDS011;61048;52.162;4.516;2023-08-17T13:23:46;6.97;;;1.17;;
72904;SDS011;61048;52.162;4.516;2023-08-17T13:26:13;2.40;;;1.02;;
72904;SDS011;61048;52.162;4.516;2023-08-17T13:28:39;4.22;;;1.15;;
72904;SDS011;61048;52.162;4.516;2023-08-17T13:31:06;2.33;;;0.73;;
72904;SDS011;61048;52.162;4.516;2023-08-17T13:33:35;4.32;;;0.98;;
72904;SDS011;61048;52.162;4.516;2023-08-17T13:36:02;2.90;;;1.00;;
72904;SDS011;61048;52.162;4.516;2023-08-17T13:38:29;2.88;;;0.73;;
72904;SDS011;61048;52.162;4.516;2023-08-17T13:40:56;3.00;;;1.15;;
72904;SDS011;61048;52.162;4.516;2023-08-17T13:43:23;4.97;;;1.10;;
72904;SDS011;61048;52.162;4.516;2023-08-17T13:45:50;4.13;;;0.98;;
72904;SDS011;61048;52.162;4.516;2023-08-17T13:48:17;2.97;;;1.30;;
72904;SDS011;61048;52.162;4.516;2023-08-17T13:50:45;3.03;;;1.02;;
72904;SDS011;61048;52.162;4.516;2023-08-17T13:53:12;4.22;;;1.50;;
72904;SDS011;61048;52.162;4.516;2023-08-17T13:55:39;3.35;;;1.17;;
72904;SDS011;61048;52.162;4.516;2023-08-17T13:58:06;3.15;;;0.80;;
72904;SDS011;61048;52.162;4.516;2023-08-17T14:00:35;4.05;;;0.90;;
72904;SDS011;61048;52.162;4.516;2023-08-17T14:03:02;2.92;;;0.93;;
72904;SDS011;61048;52.162;4.516;2023-08-17T14:05:31;5.28;;;0.80;;
72904;SDS011;61048;52.162;4.516;2023-08-17T14:08:00;4.50;;;1.30;;
72904;SDS011;61048;52.162;4.516;2023-08-17T14:10:28;3.20;;;0.98;;
72904;SDS011;61048;52.162;4.516;2023-08-17T14:12:55;3.47;;;0.93;;
72904;SDS011;61048;52.162;4.516;2023-08-17T14:15:22;2.38;;;0.90;;
72904;SDS011;61048;52.162;4.516;2023-08-17T14:17:49;3.33;;;1.10;;
72904;SDS011;61048;52.162;4.516;2023-08-17T14:20:16;2.63;;;1.02;;
72904;SDS011;61048;52.162;4.516;2023-08-17T14:22:43;3.47;;;1.17;;
72904;SDS011;61048;52.162;4.516;2023-08-17T14:25:12;3.47;;;0.90;;
72904;SDS011;61048;52.162;4.516;2023-08-17T14:27:41;2.80;;;1.35;;
72904;SDS011;61048;52.162;4.516;2023-08-17T14:30:08;5.82;;;1.17;;
72904;SDS011;61048;52.162;4.516;2023-08-17T14:32:35;4.18;;;1.50;;
72904;SDS011;61048;52.162;4.516;2023-08-17T14:35:02;3.45;;;1.40;;
72904;SDS011;61048;52.162;4.516;2023-08-17T14:37:29;4.30;;;1.23;;
72904;SDS011;61048;52.162;4.516;2023-08-17T14:39:56;3.92;;;1.23;;
72904;SDS011;61048;52.162;4.516;2023-08-17T14:42:24;3.38;;;1.17;;
72904;SDS011;61048;52.162;4.516;2023-08-17T14:44:51;8.23;;;1.30;;
72904;SDS011;61048;52.162;4.516;2023-08-17T14:47:18;5.03;;;1.30;;
72904;SDS011;61048;52.162;4.516;2023-08-17T14:49:45;3.88;;;1.52;;
72904;SDS011;61048;52.162;4.516;2023-08-17T14:52:12;4.07;;;1.60;;